Time;durP1;ratioP1;P1;durP2;ratioP2;P2;SDS_P1;SDS_P2;PMS_P1;PMS_P2;Temp;Humidity;BMP_temperature;BMP_pressure;BME280_temperature;BME280_humidity;BME280_pressure;Samples;Min_cycle;Max_cycle;Signal;HPM_P1;HPM_P2
2023/08/24 00:00:43;;;;;;;7.78;2.33;;;;;;;17.04;100.00;98976.28;5138979;28;20495;-59
2023/08/24 00:03:09;;;;;;;5.68;2.17;;;;;;;16.93;100.00;99026.25;5138789;28;20058;-59
2023/08/24 00:05:36;;;;;;;7.57;3.50;;;;;;;16.84;100.00;99050.84;5139042;28;20050;-60
2023/08/24 00:08:03;;;;;;;6.35;2.60;;;;;;;16.90;100.00;99082.44;5138514;27;20062;-59
2023/08/24 00:10:29;;;;;;;6.97;2.72;;;;;;;16.83;100.00;99060.38;5139221;28;20094;-60
2023/08/24 00:12:55;;;;;;;3.72;2.10;;;;;;;16.82;100.00;99089.22;5138559;28;20142;-60
2023/08/24 00:15:21;;;;;;;4.88;2.25;;;;;;;16.66;100.00;99090.53;5139053;28;20142;-59
2023/08/24 00:17:47;;;;;;;4.03;2.83;;;;;;;16.78;100.00;99056.03;5138509;28;20051;-62
2023/08/24 00:20:13;;;;;;;7.30;3.97;;;;;;;16.68;100.00;99065.19;5138843;28;20200;-62
2023/08/24 00:22:39;;;;;;;6.55;2.78;;;;;;;16.79;100.00;99093.59;5138487;28;20464;-63
2023/08/24 00:25:07;;;;;;;6.30;2.60;;;;;;;16.77;100.00;99043.41;5138582;28;20055;-59
2023/08/24 00:27:33;;;;;;;6.75;3.00;;;;;;;16.83;100.00;99061.16;5138480;28;20361;-59
2023/08/24 00:29:59;;;;;;;6.40;3.15;;;;;;;16.75;100.00;99045.78;5138554;28;20079;-60
2023/08/24 00:32:25;;;;;;;7.68;2.65;;;;;;;16.83;100.00;99018.84;5138695;28;20316;-59
2023/08/24 00:34:51;;;;;;;8.73;2.70;;;;;;;16.75;100.00;99023.63;5138420;28;20051;-60
2023/08/24 00:37:17;;;;;;;11.60;3.13;;;;;;;16.77;100.00;99004.66;5138604;28;20082;-59
2023/08/24 00:39:43;;;;;;;3.85;2.22;;;;;;;16.75;100.00;99012.56;5138179;28;20328;-61
2023/08/24 00:42:13;;;;;;;9.80;2.53;;;;;;;16.62;100.00;99037.16;5138549;28;20043;-60
2023/08/24 00:44:39;;;;;;;6.03;3.00;;;;;;;16.55;100.00;99078.72;5138031;28;20046;-59
2023/08/24 00:47:06;;;;;;;5.97;2.67;;;;;;;16.46;100.00;99103.31;5138797;28;20142;-59
2023/08/24 00:49:32;;;;;;;5.35;2.38;;;;;;;16.51;100.00;99108.41;5138512;28;20493;-62
2023/08/24 00:51:58;;;;;;;7.18;2.55;;;;;;;16.40;100.00;99094.66;5138231;28;20146;-60
2023/08/24 00:54:25;;;;;;;7.93;2.65;;;;;;;16.45;100.00;99104.50;5138263;28;20093;-59
2023/08/24 00:56:51;;;;;;;3.70;2.40;;;;;;;16.39;100.00;99103.34;5138138;28;20134;-60
2023/08/24 00:59:17;;;;;;;4.07;2.60;;;;;;;16.36;100.00;99101.41;5138237;28;20139;-61
2023/08/24 01:01:45;;;;;;;5.57;2.42;;;;;;;16.33;100.00;99102.22;5138130;28;20333;-63
2023/08/24 01:04:12;;;;;;;4.13;2.90;;;;;;;16.27;100.00;99112.16;5138242;28;20298;-60
2023/08/24 01:06:37;;;;;;;9.88;3.30;;;;;;;16.17;100.00;99133.94;5137724;28;20461;-60
2023/08/24 01:09:04;;;;;;;6.20;2.97;;;;;;;16.13;100.00;99171.09;5138046;28;20055;-62
2023/08/24 01:11:38;;;;;;;4.65;2.80;;;;;;;16.04;100.00;99212.22;5137718;28;20097;-59
2023/08/24 01:14:09;;;;;;;11.73;2.80;;;;;;;15.88;100.00;99251.34;5138107;28;20134;-61
2023/08/24 01:16:40;;;;;;;7.93;2.90;;;;;;;15.96;100.00;99289.66;5138184;28;20384;-60
2023/08/24 01:19:12;;;;;;;9.20;2.63;;;;;;;15.92;100.00;99296.38;5136749;27;20147;-59
2023/08/24 01:21:38;;;;;;;4.43;2.55;;;;;;;15.88;100.00;99288.06;5137908;28;20058;-58
2023/08/24 01:24:12;;;;;;;6.85;2.90;;;;;;;15.86;100.00;99303.47;5137640;28;20110;-61
2023/08/24 01:26:41;;;;;;;6.15;3.50;;;;;;;15.80;100.00;99316.16;5137674;28;20059;-62
2023/08/24 01:29:08;;;;;;;4.35;2.80;;;;;;;15.75;100.00;99339.44;5137518;28;20138;-60
2023/08/24 01:31:34;;;;;;;7.50;3.67;;;;;;;15.77;100.00;99370.25;5137838;28;20134;-63
2023/08/24 01:34:01;;;;;;;5.35;3.28;;;;;;;15.73;100.00;99370.25;5137391;28;20207;-60
2023/08/24 01:36:27;;;;;;;4.70;3.15;;;;;;;15.69;100.00;99380.50;5137856;28;20059;-62
2023/08/24 01:39:06;;;;;;;9.40;3.28;;;;;;;15.64;100.00;99391.13;5137210;28;20138;-62
2023/08/24 01:41:37;;;;;;;6.68;2.97;;;;;;;15.62;100.00;99399.00;5137224;28;20409;-62
2023/08/24 01:44:04;;;;;;;8.65;2.88;;;;;;;15.56;100.00;99398.63;5137535;28;20104;-58
2023/08/24 01:46:33;;;;;;;4.53;3.20;;;;;;;15.62;100.00;99419.13;5137368;28;20054;-61
2023/08/24 01:49:00;;;;;;;5.00;3.20;;;;;;;15.54;100.00;99426.63;5137540;28;20089;-62
2023/08/24 01:51:26;;;;;;;3.65;3.35;;;;;;;15.56;100.00;99442.84;5137112;28;20420;-61
2023/08/24 01:53:53;;;;;;;5.30;2.97;;;;;;;15.56;100.00;99439.25;5137424;28;20053;-59
2023/08/24 01:56:19;;;;;;;7.32;3.65;;;;;;;15.51;100.00;99432.94;5137070;28;20150;-63
2023/08/24 01:58:45;;;;;;;7.13;3.20;;;;;;;15.51;100.00;99424.66;5137534;28;20047;-62
2023/08/24 02:01:12;;;;;;;4.93;2.83;;;;;;;15.50;100.00;99441.63;5137035;28;20096;-59
2023/08/24 02:03:39;;;;;;;8.73;3.13;;;;;;;15.47;100.00;99436.88;5137429;28;20043;-62
2023/08/24 02:06:06;;;;;;;6.53;3.20;;;;;;;15.47;100.00;99443.19;5136883;28;20058;-62
2023/08/24 02:08:32;;;;;;;4.43;3.20;;;;;;;15.43;100.00;99442.41;5136846;28;20051;-59
2023/08/24 02:10:58;;;;;;;6.35;3.10;;;;;;;15.42;100.00;99457.38;5137177;28;20108;-59
2023/08/24 02:13:24;;;;;;;4.60;2.80;;;;;;;15.36;100.00;99464.50;5137046;28;20047;-59
2023/08/24 02:15:50;;;;;;;5.63;3.53;;;;;;;15.38;100.00;99470.41;5137237;28;20098;-61
2023/08/24 02:18:17;;;;;;;7.40;3.22;;;;;;;15.37;100.00;99474.34;5136803;28;20361;-61
2023/08/24 02:20:42;;;;;;;10.20;3.13;;;;;;;15.44;100.00;99474.38;5137251;28;20043;-59
2023/08/24 02:23:08;;;;;;;14.38;3.13;;;;;;;15.45;100.00;99470.41;5136879;28;20047;-60
2023/08/24 02:25:34;;;;;;;8.77;3.33;;;;;;;15.52;100.00;99472.41;5137095;28;20456;-61
2023/08/24 02:28:00;;;;;;;5.72;2.88;;;;;;;15.51;100.00;99457.81;5136778;28;20134;-62
2023/08/24 02:30:26;;;;;;;8.90;4.10;;;;;;;15.56;100.00;99453.06;5138340;27;20138;-62
2023/08/24 02:32:52;;;;;;;8.98;3.75;;;;;;;15.44;100.00;99443.97;5140227;28;20152;-59
2023/08/24 02:35:19;;;;;;;6.00;3.30;;;;;;;15.53;100.00;99452.69;5140411;28;20141;-60
2023/08/24 02:37:45;;;;;;;8.48;3.70;;;;;;;15.50;100.00;99447.94;5140401;28;20058;-60
2023/08/24 02:40:11;;;;;;;12.45;4.20;;;;;;;15.54;100.00;99440.44;5140305;28;20358;-59
2023/08/24 02:42:37;;;;;;;11.85;4.38;;;;;;;15.57;100.00;99427.84;5140316;28;20051;-63
2023/08/24 02:45:04;;;;;;;13.50;3.45;;;;;;;15.55;100.00;99438.47;5140089;28;20047;-61
2023/08/24 02:47:30;;;;;;;11.38;3.50;;;;;;;15.63;100.00;99436.53;5140408;28;20051;-59
2023/08/24 02:49:56;;;;;;;6.85;2.75;;;;;;;15.62;100.00;99446.78;5140052;28;20154;-60
2023/08/24 02:52:22;;;;;;;5.15;3.00;;;;;;;15.68;100.00;99448.00;5140263;28;20138;-62
2023/08/24 02:54:48;;;;;;;7.22;3.50;;;;;;;15.66;100.00;99444.00;5139931;28;20331;-61
2023/08/24 02:57:14;;;;;;;15.27;3.90;;;;;;;15.68;100.00;99441.69;5140251;28;20046;-61
2023/08/24 02:59:43;;;;;;;7.65;3.08;;;;;;;15.71;100.00;99440.91;5139807;28;20058;-62
2023/08/24 03:02:09;;;;;;;7.43;3.30;;;;;;;15.75;100.00;99430.63;5140179;28;20308;-60
2023/08/24 03:04:35;;;;;;;5.38;3.65;;;;;;;15.71;100.00;99440.91;5139681;28;20107;-62
2023/08/24 03:07:01;;;;;;;8.57;3.83;;;;;;;15.73;100.00;99428.28;5139887;28;20062;-62
2023/08/24 03:09:27;;;;;;;15.82;5.20;;;;;;;15.79;100.00;99405.75;5139927;28;20109;-59
2023/08/24 03:11:53;;;;;;;12.50;3.70;;;;;;;15.77;100.00;99395.13;5139790;28;20130;-60
2023/08/24 03:14:20;;;;;;;9.45;3.70;;;;;;;15.80;100.00;99379.72;5139928;28;20328;-59
2023/08/24 03:16:46;;;;;;;10.98;4.25;;;;;;;15.74;100.00;99391.16;5139727;28;20127;-63
2023/08/24 03:19:14;;;;;;;6.25;3.67;;;;;;;15.75;100.00;99408.53;5139909;28;20270;-62
2023/08/24 03:21:40;;;;;;;10.30;3.95;;;;;;;15.79;100.00;99422.34;5139543;28;20062;-62
2023/08/24 03:24:06;;;;;;;4.90;3.03;;;;;;;15.85;100.00;99429.06;5139864;28;20058;-61
2023/08/24 03:26:33;;;;;;;10.05;4.18;;;;;;;15.88;100.00;99418.00;5139379;28;20065;-63
2023/08/24 03:28:59;;;;;;;5.75;2.65;;;;;;;15.99;100.00;99413.28;5139827;28;20193;-63
2023/08/24 03:31:26;;;;;;;5.40;2.70;;;;;;;15.86;100.00;99381.69;5139304;28;20043;-62
2023/08/24 03:33:51;;;;;;;8.30;3.63;;;;;;;16.10;100.00;99371.00;5139223;28;20138;-62
2023/08/24 03:36:18;;;;;;;8.80;3.53;;;;;;;16.17;100.00;99329.50;5139269;28;20079;-60
2023/08/24 03:38:45;;;;;;;3.88;3.05;;;;;;;16.26;100.00;99334.63;5139120;28;20318;-59
2023/08/24 03:41:11;;;;;;;8.93;3.17;;;;;;;16.38;100.00;99303.75;5139532;27;20043;-61
2023/08/24 03:43:37;;;;;;;7.97;3.42;;;;;;;16.37;100.00;99275.31;5138488;28;20432;-61
2023/08/24 03:46:05;;;;;;;7.30;3.55;;;;;;;16.41;100.00;99267.00;5139229;28;20423;-61
2023/08/24 03:48:31;;;;;;;7.22;3.10;;;;;;;16.56;100.00;99220.66;5139481;28;20364;-62
2023/08/24 03:50:58;;;;;;;7.50;2.80;;;;;;;16.76;100.00;99163.66;5139403;28;20058;-60
2023/08/24 03:53:24;;;;;;;7.93;3.47;;;;;;;17.07;100.00;99073.19;5139068;28;20392;-63
2023/08/24 03:55:51;;;;;;;5.22;2.58;;;;;;;17.04;100.00;99004.75;5139327;28;20119;-62
2023/08/24 03:58:17;;;;;;;8.25;2.97;;;;;;;16.98;100.00;98997.31;5138847;28;20138;-60
2023/08/24 04:00:44;;;;;;;3.10;2.80;;;;;;;17.02;100.00;98993.28;5138834;28;20115;-60
2023/08/24 04:03:10;;;;;;;7.13;2.85;;;;;;;16.91;100.00;98953.88;5139007;28;20142;-60
2023/08/24 04:05:36;;;;;;;4.85;2.35;;;;;;;17.00;100.00;98867.53;5138617;28;20054;-61
2023/08/24 04:08:02;;;;;;;5.57;2.70;;;;;;;17.01;100.00;98805.41;5138973;28;20112;-61
2023/08/24 04:10:29;;;;;;;9.50;3.05;;;;;;;16.91;100.00;98791.28;5138819;28;20336;-60
2023/08/24 04:12:55;;;;;;;5.43;2.63;;;;;;;17.10;100.00;98778.00;5139059;28;20057;-60
2023/08/24 04:15:21;;;;;;;5.78;2.60;;;;;;;17.33;100.00;98708.75;5138755;28;20201;-61
2023/08/24 04:17:47;;;;;;;5.03;2.45;;;;;;;17.40;100.00;98641.38;5138996;28;20115;-63
2023/08/24 04:20:13;;;;;;;4.07;2.97;;;;;;;17.53;100.00;98595.19;5138520;28;20061;-62
2023/08/24 04:22:39;;;;;;;9.00;2.85;;;;;;;17.70;100.00;98489.94;5138895;28;20043;-63
2023/08/24 04:25:06;;;;;;;6.68;2.97;;;;;;;18.08;100.00;98360.69;5138404;28;20130;-62
2023/08/24 04:27:32;;;;;;;3.65;2.58;;;;;;;19.05;100.00;98205.31;5138917;28;20047;-62
2023/08/24 04:29:58;;;;;;;5.95;2.50;;;;;;;18.88;100.00;98142.81;5138468;28;20054;-60
2023/08/24 04:32:24;;;;;;;9.52;2.65;;;;;;;18.63;100.00;98158.22;5138488;28;20062;-64
2023/08/24 04:34:51;;;;;;;11.35;3.30;;;;;;;18.41;100.00;98157.31;5138770;28;20077;-60
2023/08/24 04:37:17;;;;;;;5.13;2.40;;;;;;;17.98;100.00;98184.28;5138357;28;20085;-61
2023/08/24 04:39:42;;;;;;;7.75;3.17;;;;;;;18.06;100.00;98195.94;5138489;28;20473;-60
2023/08/24 04:42:08;;;;;;;4.97;3.10;;;;;;;17.82;100.00;98214.81;5137958;28;20142;-59
2023/08/24 04:44:34;;;;;;;6.88;2.55;;;;;;;17.87;100.00;98230.94;5138449;28;20083;-59
2023/08/24 04:47:00;;;;;;;4.38;2.60;;;;;;;17.73;100.00;98222.97;5137884;28;20051;-60
2023/08/24 04:49:26;;;;;;;6.45;3.28;;;;;;;17.92;100.00;98230.38;5138479;28;20079;-60
2023/08/24 04:51:53;;;;;;;7.10;2.90;;;;;;;18.07;100.00;98239.13;5138027;28;20183;-60
2023/08/24 04:54:18;;;;;;;7.72;2.60;;;;;;;18.27;100.00;98225.09;5138304;27;20050;-60
2023/08/24 04:56:44;;;;;;;8.32;2.63;;;;;;;18.91;100.00;98148.25;5137846;28;20397;-61
2023/08/24 04:59:10;;;;;;;5.72;2.72;;;;;;;19.07;100.00;98135.47;5138172;28;20401;-61
2023/08/24 05:01:36;;;;;;;10.02;2.45;;;;;;;19.09;100.00;98128.22;5137780;28;20355;-63
2023/08/24 05:04:02;;;;;;;4.20;2.70;;;;;;;19.16;100.00;98146.63;5137927;28;20058;-61
2023/08/24 05:06:29;;;;;;;8.68;2.85;;;;;;;19.33;100.00;98145.28;5137666;28;20050;-60
2023/08/24 05:08:55;;;;;;;6.25;2.50;;;;;;;19.68;100.00;98162.75;5137750;28;20145;-63
2023/08/24 05:11:23;;;;;;;15.82;2.75;;;;;;;19.55;100.00;98177.91;5137987;28;20141;-63
2023/08/24 05:13:50;;;;;;;3.38;2.30;;;;;;;19.39;100.00;98164.94;5137898;28;20050;-62
2023/08/24 05:16:16;;;;;;;6.90;2.85;;;;;;;19.09;100.00;98147.66;5138137;28;20051;-60
2023/08/24 05:18:42;;;;;;;4.18;2.85;;;;;;;19.10;100.00;98138.13;5137347;28;20057;-59
2023/08/24 05:21:08;;;;;;;7.07;2.65;;;;;;;19.05;100.00;98131.09;5137635;28;20042;-60
2023/08/24 05:23:35;;;;;;;8.63;2.58;;;;;;;19.00;100.00;98128.91;5137348;28;20050;-62
2023/08/24 05:26:03;;;;;;;5.13;2.60;;;;;;;18.90;100.00;98138.38;5137779;28;20324;-63
2023/08/24 05:28:30;;;;;;;4.80;2.70;;;;;;;18.98;100.00;98136.91;5137236;28;20328;-62
2023/08/24 05:30:56;;;;;;;6.80;2.90;;;;;;;19.04;100.00;98145.44;5137413;28;20167;-62
2023/08/24 05:33:23;;;;;;;4.68;2.50;;;;;;;19.07;100.00;98152.91;5137519;28;20154;-60
2023/08/24 05:35:51;;;;;;;7.13;2.88;;;;;;;19.14;100.00;98146.31;5137348;28;20447;-63
2023/08/24 05:38:18;;;;;;;10.50;2.90;;;;;;;18.98;100.00;98150.00;5137380;28;20092;-59
2023/08/24 05:40:47;;;;;;;10.95;2.97;;;;;;;19.07;100.00;98149.34;5137338;28;20059;-61
2023/08/24 05:43:14;;;;;;;5.78;2.38;;;;;;;18.89;100.00;98147.91;5137525;28;20069;-61
2023/08/24 05:45:40;;;;;;;11.32;2.65;;;;;;;18.97;100.00;98149.25;5137073;28;20196;-62
2023/08/24 05:48:07;;;;;;;7.03;3.08;;;;;;;19.04;100.00;98148.22;5137418;28;20089;-59
2023/08/24 05:50:33;;;;;;;8.23;2.90;;;;;;;19.12;100.00;98143.22;5136928;28;20135;-61
2023/08/24 05:52:59;;;;;;;5.32;2.65;;;;;;;19.14;100.00;98138.75;5137458;28;20093;-62
2023/08/24 05:55:25;;;;;;;12.65;3.42;;;;;;;19.14;100.00;98149.09;5136842;28;20338;-62
2023/08/24 05:57:51;;;;;;;9.43;3.70;;;;;;;19.12;100.00;98154.31;5137068;28;20404;-59
2023/08/24 06:00:18;;;;;;;7.15;3.20;;;;;;;19.06;100.00;98156.91;5137047;28;20082;-62
2023/08/24 06:02:44;;;;;;;13.60;3.33;;;;;;;19.24;100.00;98147.97;5136907;28;20417;-60
2023/08/24 06:05:11;;;;;;;13.13;3.33;;;;;;;19.29;100.00;98150.16;5137576;27;20083;-61
2023/08/24 06:07:37;;;;;;;8.00;2.80;;;;;;;19.45;100.00;98141.69;5140433;28;20180;-59
2023/08/24 06:10:03;;;;;;;8.68;3.03;;;;;;;19.45;100.00;98138.91;5140595;28;20134;-54
2023/08/24 06:12:29;;;;;;;14.48;2.80;;;;;;;19.31;100.00;98138.63;5140383;28;20431;-59
2023/08/24 06:14:55;;;;;;;14.40;3.30;;;;;;;19.35;100.00;98137.25;5140494;28;20055;-57
2023/08/24 06:17:21;;;;;;;12.68;2.88;;;;;;;19.38;100.00;98135.59;5140451;28;20066;-58
2023/08/24 06:19:47;;;;;;;6.97;2.53;;;;;;;19.46;100.00;98136.88;5140582;28;20061;-57
2023/08/24 06:22:13;;;;;;;11.48;2.60;;;;;;;19.64;100.00;98141.88;5140208;28;20130;-55
2023/08/24 06:24:39;;;;;;;11.77;2.17;;;;;;;19.75;100.00;98139.50;5140508;28;20396;-57
2023/08/24 06:27:05;;;;;;;11.13;3.45;;;;;;;19.76;100.00;98152.19;5140285;28;20050;-58
2023/08/24 06:29:31;;;;;;;11.55;3.17;;;;;;;19.99;100.00;98156.50;5140291;28;20059;-59
2023/08/24 06:31:57;;;;;;;6.93;2.42;;;;;;;20.18;100.00;98166.53;5139944;28;20385;-61
2023/08/24 06:34:23;;;;;;;13.88;2.63;;;;;;;20.18;100.00;98160.97;5140157;28;20138;-62
2023/08/24 06:36:50;;;;;;;7.53;2.67;;;;;;;20.28;100.00;98169.38;5140270;28;20051;-63
2023/08/24 06:39:16;;;;;;;10.02;2.90;;;;;;;20.35;100.00;98171.88;5139821;28;20196;-61
2023/08/24 06:41:42;;;;;;;11.52;2.58;;;;;;;20.33;100.00;98152.09;5140377;28;20051;-60
2023/08/24 06:44:08;;;;;;;14.40;4.13;;;;;;;20.54;100.00;98170.03;5139889;28;20134;-62
2023/08/24 06:46:34;;;;;;;4.95;2.80;;;;;;;20.59;100.00;98189.72;5140037;28;20449;-63
2023/08/24 06:49:00;;;;;;;11.40;2.80;;;;;;;20.61;100.00;98209.50;5139606;28;20061;-63
2023/08/24 06:51:27;;;;;;;13.32;3.20;;;;;;;20.71;100.00;98192.84;5140305;28;20046;-61
2023/08/24 06:53:53;;;;;;;16.27;2.85;;;;;;;20.78;100.00;98201.69;5139531;28;20047;-61
2023/08/24 06:56:19;;;;;;;16.33;3.90;;;;;;;20.91;100.00;98207.94;5139771;28;20141;-62
2023/08/24 06:58:45;;;;;;;16.65;3.30;;;;;;;21.04;100.00;98230.13;5139832;28;20404;-63
2023/08/24 07:01:11;;;;;;;16.00;2.72;;;;;;;21.12;100.00;98241.75;5139587;28;20500;-60
2023/08/24 07:03:37;;;;;;;12.55;2.45;;;;;;;21.16;100.00;98284.22;5139651;28;20100;-61
2023/08/24 07:06:06;;;;;;;6.60;3.00;;;;;;;21.36;100.00;98275.50;5139548;28;20111;-61
2023/08/24 07:08:32;;;;;;;4.93;2.80;;;;;;;21.50;100.00;98290.88;5139770;28;20054;-63
2023/08/24 07:10:58;;;;;;;7.95;2.80;;;;;;;21.63;100.00;98335.41;5139468;28;20147;-63
2023/08/24 07:13:24;;;;;;;15.90;3.05;;;;;;;21.78;100.00;98356.66;5139768;28;20138;-64
2023/08/24 07:15:50;;;;;;;8.70;2.67;;;;;;;22.05;100.00;98394.25;5139551;27;20051;-62
2023/08/24 07:18:16;;;;;;;16.08;2.95;;;;;;;22.23;100.00;98393.56;5138641;28;20051;-63
2023/08/24 07:20:42;;;;;;;24.67;3.35;;;;;;;22.30;100.00;98472.19;5139337;28;20478;-63
2023/08/24 07:23:08;;;;;;;7.47;2.75;;;;;;;22.36;100.00;98458.41;5139802;28;20050;-62
2023/08/24 07:25:35;;;;;;;18.67;3.42;;;;;;;22.52;100.00;98476.91;5139072;28;20219;-61
2023/08/24 07:28:03;;;;;;;12.80;2.88;;;;;;;22.66;100.00;98453.97;5139006;28;20405;-64
2023/08/24 07:30:29;;;;;;;15.02;3.45;;;;;;;22.81;100.00;98529.56;5139016;28;20392;-63
2023/08/24 07:32:55;;;;;;;14.63;3.05;;;;;;;23.12;100.00;98588.19;5138804;28;20043;-62
2023/08/24 07:35:24;;;;;;;8.55;2.40;;;;;;;23.74;100.00;98643.09;5139337;28;20062;-63
2023/08/24 07:37:50;;;;;;;5.85;2.33;;;;;;;24.78;100.00;98723.22;5139011;28;20051;-62
2023/08/24 07:40:16;;;;;;;10.95;2.28;;;;;;;25.90;100.00;98786.78;5139270;28;20475;-60
2023/08/24 07:42:46;;;;;;;6.68;2.08;;;;;;;26.73;100.00;98851.53;5139152;28;20074;-62
2023/08/24 07:45:12;;;;;;;5.07;1.92;;;;;;;27.26;100.00;98880.88;5139282;28;20051;-61
2023/08/24 07:47:38;;;;;;;6.43;2.47;;;;;;;26.96;100.00;98888.50;5138865;28;20047;-65
2023/08/24 07:50:04;;;;;;;11.85;2.65;;;;;;;26.64;100.00;98882.53;5139296;28;20147;-64
2023/08/24 07:52:30;;;;;;;5.70;2.08;;;;;;;26.25;100.00;98881.72;5139285;28;20151;-63
2023/08/24 07:54:59;;;;;;;7.70;2.08;;;;;;;25.91;100.00;98866.16;5138952;28;20138;-61
2023/08/24 07:57:26;;;;;;;8.23;2.30;;;;;;;25.62;100.00;98849.91;5138964;28;20051;-60
2023/08/24 07:59:52;;;;;;;6.85;1.83;;;;;;;25.33;100.00;98857.69;5138633;28;20043;-60
2023/08/24 08:02:18;;;;;;;6.78;2.40;;;;;;;25.49;100.00;98855.72;5138873;28;20138;-61
2023/08/24 08:04:44;;;;;;;11.48;2.70;;;;;;;25.74;100.00;98843.31;5138709;28;20134;-63
2023/08/24 08:07:10;;;;;;;3.35;1.88;;;;;;;26.35;100.00;98876.81;5138814;28;20050;-64
2023/08/24 08:09:36;;;;;;;6.05;3.25;;;;;;;26.40;100.00;98882.56;5138704;28;20138;-60
2023/08/24 08:12:03;;;;;;;10.85;3.00;;;;;;;26.81;100.00;98882.84;5138981;28;20047;-61
2023/08/24 08:14:29;;;;;;;8.52;2.40;;;;;;;26.85;100.00;98883.44;5138456;28;20404;-63
2023/08/24 08:16:56;;;;;;;8.57;1.83;;;;;;;26.97;100.00;98895.69;5138623;28;20061;-62
2023/08/24 08:19:22;;;;;;;8.30;1.98;;;;;;;27.70;100.00;98905.38;5138368;28;20047;-61
2023/08/24 08:21:48;;;;;;;7.07;2.55;;;;;;;28.02;100.00;98903.56;5138817;28;20054;-60
2023/08/24 08:24:14;;;;;;;6.78;1.92;;;;;;;27.85;100.00;98906.13;5138521;28;20412;-60
2023/08/24 08:26:40;;;;;;;11.02;2.22;;;;;;;28.08;100.00;98912.09;5140239;28;20051;-60
2023/08/24 08:29:05;;;;;;;13.90;2.20;;;;;;;28.17;100.00;98906.34;5140028;27;20186;-62
2023/08/24 08:31:31;;;;;;;8.93;2.30;;;;;;;27.84;100.00;98915.09;5138267;28;20476;-63
2023/08/24 08:33:58;;;;;;;9.23;2.65;;;;;;;27.59;100.00;98900.34;5138267;28;20115;-63
2023/08/24 08:36:24;;;;;;;5.35;2.05;;;;;;;27.07;100.00;98890.75;5138183;28;20055;-63
2023/08/24 08:38:50;;;;;;;4.57;1.67;;;;;;;26.00;100.00;98897.03;5138301;28;20145;-63
2023/08/24 08:41:21;;;;;;;6.50;1.58;;;;;;;25.43;100.00;98891.31;5137920;28;20130;-61
2023/08/24 08:43:48;;;;;;;3.15;1.58;;;;;;;25.28;100.00;98880.75;5138417;28;20061;-62
2023/08/24 08:46:16;;;;;;;4.10;2.00;;;;;;;25.42;100.00;98884.91;5137886;28;20047;-60
2023/08/24 08:48:42;;;;;;;6.57;1.10;;;;;;;25.48;100.00;98882.25;5138404;28;20043;-62
2023/08/24 08:51:10;;;;;;;4.38;1.58;;;;;;;25.42;100.00;98878.53;5138161;28;20097;-63
2023/08/24 08:53:36;;;;;;;3.17;1.55;;;;;;;25.00;100.00;98865.22;5137944;28;20145;-62
2023/08/24 08:56:04;;;;;;;4.68;1.90;;;;;;;24.99;100.00;98846.81;5137999;28;20142;-62
2023/08/24 08:58:32;;;;;;;8.13;1.80;;;;;;;25.02;100.00;98843.84;5137665;28;20408;-63
2023/08/24 09:00:59;;;;;;;1.67;1.30;;;;;;;25.18;100.00;98844.78;5138078;28;20141;-63
2023/08/24 09:03:27;;;;;;;11.65;2.78;;;;;;;24.90;100.00;98833.63;5137993;28;20047;-63
2023/08/24 09:05:53;;;;;;;7.00;1.90;;;;;;;24.76;100.00;98823.84;5137956;28;20054;-60
2023/08/24 09:08:21;;;;;;;7.47;1.50;;;;;;;24.39;100.00;98818.25;5137352;28;20051;-62
2023/08/24 09:10:47;;;;;;;9.80;1.70;;;;;;;23.88;100.00;98804.81;5137936;28;20151;-63
2023/08/24 09:13:13;;;;;;;6.75;1.85;;;;;;;23.69;100.00;98755.66;5137367;28;20089;-60
2023/08/24 09:15:39;;;;;;;3.55;1.50;;;;;;;23.32;100.00;98763.16;5137641;28;20047;-60
2023/08/24 09:18:05;;;;;;;10.40;1.83;;;;;;;23.07;100.00;98739.78;5137472;28;20135;-63
2023/08/24 09:20:31;;;;;;;8.43;1.70;;;;;;;23.16;100.00;98717.44;5137445;28;20460;-61
2023/08/24 09:22:57;;;;;;;6.18;2.15;;;;;;;23.17;100.00;98712.63;5137659;28;20054;-61
2023/08/24 09:25:24;;;;;;;4.20;1.52;;;;;;;23.02;100.00;98693.63;5137511;28;20442;-63
2023/08/24 09:27:56;;;;;;;5.30;1.55;;;;;;;22.71;100.00;98650.94;5137424;28;20400;-64
2023/08/24 09:30:22;;;;;;;14.90;3.70;;;;;;;22.85;100.00;98663.56;5137441;28;20051;-62
2023/08/24 09:32:48;;;;;;;2.50;1.60;;;;;;;22.85;100.00;98650.34;5137431;28;20102;-61
2023/08/24 09:35:16;;;;;;;4.13;1.75;;;;;;;22.62;100.00;98709.56;5137209;28;20146;-60
2023/08/24 09:37:45;;;;;;;5.25;1.92;;;;;;;22.73;100.00;98710.72;5137713;28;20043;-60
2023/08/24 09:40:12;;;;;;;7.70;2.03;;;;;;;22.62;100.00;98707.53;5136201;27;20332;-61
2023/08/24 09:42:39;;;;;;;1.67;1.35;;;;;;;22.69;100.00;98756.78;5137478;28;20232;-61
2023/08/24 09:45:07;;;;;;;3.83;1.35;;;;;;;22.41;100.00;98756.63;5137000;28;20058;-63
2023/08/24 09:47:33;;;;;;;7.05;2.25;;;;;;;22.46;100.00;98749.66;5137192;28;20047;-62
2023/08/24 09:49:59;;;;;;;1.48;1.25;;;;;;;22.61;100.00;98744.31;5137271;28;20054;-60
2023/08/24 09:52:31;;;;;;;5.10;1.35;;;;;;;22.20;100.00;98741.44;5137214;28;20058;-64
2023/08/24 09:55:04;;;;;;;7.90;1.50;;;;;;;22.08;100.00;98768.13;5137096;28;20204;-62
2023/08/24 09:57:31;;;;;;;2.90;1.48;;;;;;;22.09;100.00;98730.63;5137095;28;20095;-60
2023/08/24 09:59:57;;;;;;;5.88;1.60;;;;;;;21.79;100.00;98731.28;5137232;28;20130;-63
2023/08/24 10:02:26;;;;;;;2.78;1.30;;;;;;;21.88;100.00;98699.91;5136943;28;20043;-63
2023/08/24 10:04:55;;;;;;;8.75;1.88;;;;;;;22.17;100.00;98696.91;5137290;28;20143;-63
2023/08/24 10:07:25;;;;;;;4.68;1.52;;;;;;;21.78;100.00;98696.25;5136577;28;20111;-60
2023/08/24 10:10:02;;;;;;;4.20;1.42;;;;;;;21.98;100.00;98690.38;5136681;28;20057;-60
2023/08/24 10:12:31;;;;;;;4.43;2.03;;;;;;;21.95;100.00;98680.88;5136861;28;20112;-61
2023/08/24 10:15:01;;;;;;;8.52;1.92;;;;;;;22.19;100.00;98661.72;5136425;28;20151;-61
2023/08/24 10:17:27;;;;;;;10.90;1.60;;;;;;;22.27;100.00;98643.44;5136866;28;20051;-64
2023/08/24 10:19:56;;;;;;;5.13;1.98;;;;;;;22.37;100.00;98621.94;5136746;28;20398;-64
2023/08/24 10:22:22;;;;;;;3.80;1.58;;;;;;;22.35;100.00;98632.75;5136768;28;20211;-62
2023/08/24 10:24:48;;;;;;;13.98;2.45;;;;;;;22.45;100.00;98630.81;5136306;28;20424;-64
2023/08/24 10:27:14;;;;;;;4.68;1.77;;;;;;;22.08;100.00;98636.16;5136916;28;20176;-63
2023/08/24 10:29:40;;;;;;;5.97;2.03;;;;;;;22.41;100.00;98652.50;5136448;28;20055;-61
2023/08/24 10:32:08;;;;;;;4.07;2.13;;;;;;;22.52;100.00;98703.16;5136932;28;20298;-60
2023/08/24 10:34:34;;;;;;;1.90;1.40;;;;;;;22.48;100.00;98705.31;5136746;28;20134;-62
2023/08/24 10:37:08;;;;;;;4.55;1.90;;;;;;;22.50;100.00;98719.59;5136715;28;20143;-60
2023/08/24 10:39:37;;;;;;;5.25;1.50;;;;;;;22.36;100.00;98684.63;5136695;28;20123;-62
2023/08/24 10:42:04;;;;;;;6.47;2.40;;;;;;;22.48;100.00;98702.50;5136317;28;20116;-63
2023/08/24 10:44:34;;;;;;;4.40;1.27;;;;;;;22.19;100.00;98684.03;5136088;28;20051;-62
2023/08/24 10:47:12;;;;;;;5.57;2.10;;;;;;;22.15;100.00;98686.16;5136176;28;20111;-62
2023/08/24 10:49:38;;;;;;;3.75;1.60;;;;;;;22.13;100.00;98679.47;5136471;28;20066;-62
2023/08/24 10:52:20;;;;;;;7.53;1.50;;;;;;;21.97;100.00;98653.31;5138332;27;20142;-62
2023/08/24 10:54:48;;;;;;;5.97;2.38;;;;;;;21.78;100.00;98581.84;5140181;28;20042;-64
2023/08/24 10:57:22;;;;;;;1.70;1.35;;;;;;;21.79;100.00;98603.75;5139937;28;20066;-63
2023/08/24 11:00:05;;;;;;;4.20;1.75;;;;;;;21.62;100.00;98557.72;5139775;28;20399;-61
2023/08/24 11:02:41;;;;;;;3.92;2.25;;;;;;;21.53;100.00;98496.34;5139994;28;20047;-63
2023/08/24 11:05:15;;;;;;;4.05;1.58;;;;;;;21.45;100.00;98419.72;5139779;28;20075;-63
2023/08/24 11:07:49;;;;;;;4.80;2.03;;;;;;;21.10;100.00;98302.78;5139854;28;20145;-61
2023/08/24 11:10:16;;;;;;;8.05;3.53;;;;;;;21.15;100.00;98174.72;5139543;28;20047;-63
2023/08/24 11:13:12;;;;;;;8.00;2.85;;;;;;;20.66;100.00;98158.78;5139858;28;20146;-61
2023/08/24 11:15:40;;;;;;;3.28;1.63;;;;;;;20.94;100.00;98155.34;5139950;28;20103;-63
2023/08/24 11:18:30;;;;;;;7.38;1.60;;;;;;;20.85;100.00;98147.72;5139842;28;20062;-62
2023/08/24 11:21:00;;;;;;;7.15;2.35;;;;;;;20.75;100.00;98263.09;5114394;28;20138;-63
2023/08/24 11:23:26;;;;;;;4.35;2.20;;;;;;;20.30;100.00;98393.13;5139261;28;20386;-63